sensor_id;sensor_type;location;lat;lon;timestamp;pressure;altitude;pressure_sealevel;temperature;humidity
31183;BME280;17813;0.000;0.000;2023-07-08T00:00:54;99746.13;;;16.00;69.99
31183;BME280;17813;0.000;0.000;2023-07-08T00:03:22;99743.94;;;15.94;70.24
31183;BME280;17813;0.000;0.000;2023-07-08T00:05:53;99740.31;;;15.84;70.29
31183;BME280;17813;0.000;0.000;2023-07-08T00:08:22;99740.66;;;15.90;69.70
31183;BME280;17813;0.000;0.000;2023-07-08T00:10:49;99744.78;;;15.72;70.53
31183;BME280;17813;0.000;0.000;2023-07-08T00:13:16;99737.63;;;15.72;70.63
31183;BME280;17813;0.000;0.000;2023-07-08T00:15:45;99746.97;;;15.67;71.25
31183;BME280;17813;0.000;0.000;2023-07-08T00:18:17;99746.16;;;15.54;72.25
31183;BME280;17813;0.000;0.000;2023-07-08T00:20:47;99746.88;;;15.33;72.94
31183;BME280;17813;0.000;0.000;2023-07-08T00:23:14;99745.25;;;15.20;73.52
31183;BME280;17813;0.000;0.000;2023-07-08T00:25:42;99754.84;;;15.22;72.84
31183;BME280;17813;0.000;0.000;2023-07-08T00:28:19;99750.56;;;15.08;73.49
31183;BME280;17813;0.000;0.000;2023-07-08T00:30:46;99739.50;;;15.02;74.18
31183;BME280;17813;0.000;0.000;2023-07-08T00:33:14;99741.88;;;14.94;74.44
31183;BME280;17813;0.000;0.000;2023-07-08T00:35:44;99740.19;;;14.93;73.69
31183;BME280;17813;0.000;0.000;2023-07-08T00:38:17;99735.47;;;14.96;73.51
31183;BME280;17813;0.000;0.000;2023-07-08T00:40:59;99741.16;;;14.92;72.70
31183;BME280;17813;0.000;0.000;2023-07-08T00:43:53;99742.34;;;14.88;72.88
31183;BME280;17813;0.000;0.000;2023-07-08T00:49:45;99745.03;;;14.64;74.00
31183;BME280;17813;0.000;0.000;2023-07-08T00:52:28;99740.09;;;14.70;74.19
31183;BME280;17813;0.000;0.000;2023-07-08T00:54:59;99737.06;;;14.75;74.17
31183;BME280;17813;0.000;0.000;2023-07-08T00:57:44;99744.28;;;14.62;74.45
31183;BME280;17813;0.000;0.000;2023-07-08T01:00:15;99744.06;;;14.65;74.72
31183;BME280;17813;0.000;0.000;2023-07-08T01:02:50;99740.03;;;14.59;74.62
31183;BME280;17813;0.000;0.000;2023-07-08T01:05:24;99737.09;;;14.51;74.95
31183;BME280;17813;0.000;0.000;2023-07-08T01:07:56;99742.75;;;14.46;75.54
31183;BME280;17813;0.000;0.000;2023-07-08T01:10:49;99742.53;;;14.50;75.02
31183;BME280;17813;0.000;0.000;2023-07-08T01:13:19;99742.53;;;14.50;75.02
31183;BME280;17813;0.000;0.000;2023-07-08T01:15:47;99742.53;;;14.50;75.46
31183;BME280;17813;0.000;0.000;2023-07-08T01:18:17;99753.22;;;14.50;75.11
31183;BME280;17813;0.000;0.000;2023-07-08T01:20:47;99752.88;;;14.41;75.77
31183;BME280;17813;0.000;0.000;2023-07-08T01:23:15;99751.00;;;14.31;76.56
31183;BME280;17813;0.000;0.000;2023-07-08T01:25:44;99749.63;;;14.25;76.65
31183;BME280;17813;0.000;0.000;2023-07-08T01:28:15;99750.19;;;14.18;76.60
31183;BME280;17813;0.000;0.000;2023-07-08T01:30:44;99742.97;;;14.07;77.41
31183;BME280;17813;0.000;0.000;2023-07-08T01:33:20;99746.94;;;13.89;77.56
31183;BME280;17813;0.000;0.000;2023-07-08T01:35:49;99747.06;;;13.74;78.59
31183;BME280;17813;0.000;0.000;2023-07-08T01:38:19;99745.78;;;13.80;77.92
31183;BME280;17813;0.000;0.000;2023-07-08T01:40:54;99741.50;;;13.90;76.74
31183;BME280;17813;0.000;0.000;2023-07-08T01:43:21;99740.94;;;14.10;75.85
31183;BME280;17813;0.000;0.000;2023-07-08T01:46:00;99737.38;;;14.23;75.21
31183;BME280;17813;0.000;0.000;2023-07-08T01:48:38;99743.22;;;14.28;74.65
31183;BME280;17813;0.000;0.000;2023-07-08T01:51:07;99739.38;;;14.32;74.91
31183;BME280;17813;0.000;0.000;2023-07-08T01:53:42;99737.03;;;14.27;74.66
31183;BME280;17813;0.000;0.000;2023-07-08T01:56:11;99739.81;;;14.26;74.82
31183;BME280;17813;0.000;0.000;2023-07-08T01:58:50;99735.59;;;14.10;76.14
31183;BME280;17813;0.000;0.000;2023-07-08T02:01:16;99730.69;;;14.04;76.45
31183;BME280;17813;0.000;0.000;2023-07-08T02:03:49;99732.63;;;14.02;76.12
31183;BME280;17813;0.000;0.000;2023-07-08T02:06:16;99733.47;;;14.03;76.45
31183;BME280;17813;0.000;0.000;2023-07-08T02:08:45;99727.28;;;14.02;75.96
31183;BME280;17813;0.000;0.000;2023-07-08T02:11:12;99728.47;;;13.98;75.79
31183;BME280;17813;0.000;0.000;2023-07-08T02:13:38;99725.59;;;14.01;75.90
31183;BME280;17813;0.000;0.000;2023-07-08T02:16:07;99729.66;;;13.94;76.11
31183;BME280;17813;0.000;0.000;2023-07-08T02:18:41;99728.16;;;13.90;76.50
31183;BME280;17813;0.000;0.000;2023-07-08T02:21:09;99728.84;;;13.68;78.02
31183;BME280;17813;0.000;0.000;2023-07-08T02:23:36;99733.53;;;13.52;78.61
31183;BME280;17813;0.000;0.000;2023-07-08T02:26:03;99738.22;;;13.48;78.30
31183;BME280;17813;0.000;0.000;2023-07-08T02:28:30;99739.19;;;13.47;77.83
31183;BME280;17813;0.000;0.000;2023-07-08T02:31:01;99734.81;;;13.34;78.39
31183;BME280;17813;0.000;0.000;2023-07-08T02:33:27;99733.44;;;13.28;78.51
31183;BME280;17813;0.000;0.000;2023-07-08T02:35:59;99739.28;;;13.21;78.41
31183;BME280;17813;0.000;0.000;2023-07-08T02:38:27;99739.56;;;13.16;78.73
31183;BME280;17813;0.000;0.000;2023-07-08T02:40:54;99732.63;;;13.13;78.73
31183;BME280;17813;0.000;0.000;2023-07-08T02:43:20;99733.47;;;13.14;78.16
31183;BME280;17813;0.000;0.000;2023-07-08T02:46:01;99733.34;;;13.03;78.19
31183;BME280;17813;0.000;0.000;2023-07-08T02:48:29;99734.84;;;13.07;78.14
31183;BME280;17813;0.000;0.000;2023-07-08T02:51:00;99738.47;;;13.06;77.87
31183;BME280;17813;0.000;0.000;2023-07-08T02:53:27;99738.16;;;13.10;78.42
31183;BME280;17813;0.000;0.000;2023-07-08T02:55:54;99741.78;;;13.09;78.69
31183;BME280;17813;0.000;0.000;2023-07-08T02:58:21;99738.81;;;13.14;78.40
31183;BME280;17813;0.000;0.000;2023-07-08T03:00:52;99735.75;;;13.20;77.54
31183;BME280;17813;0.000;0.000;2023-07-08T03:03:20;99735.13;;;13.16;78.01
31183;BME280;17813;0.000;0.000;2023-07-08T03:06:03;99732.66;;;12.86;78.53
31183;BME280;17813;0.000;0.000;2023-07-08T03:08:32;99739.16;;;12.95;78.45
31183;BME280;17813;0.000;0.000;2023-07-08T03:11:01;99739.06;;;12.97;78.11
31183;BME280;17813;0.000;0.000;2023-07-08T03:13:29;99735.91;;;13.04;77.58
31183;BME280;17813;0.000;0.000;2023-07-08T03:15:58;99742.75;;;13.08;76.98
31183;BME280;17813;0.000;0.000;2023-07-08T03:18:29;99748.28;;;13.05;77.44
31183;BME280;17813;0.000;0.000;2023-07-08T03:20:57;99747.22;;;13.08;77.24
31183;BME280;17813;0.000;0.000;2023-07-08T03:23:25;99755.75;;;13.13;77.35
31183;BME280;17813;0.000;0.000;2023-07-08T03:25:53;99759.25;;;13.13;77.51
31183;BME280;17813;0.000;0.000;2023-07-08T03:28:20;99748.81;;;13.10;77.77
31183;BME280;17813;0.000;0.000;2023-07-08T03:30:52;99754.44;;;13.06;78.22
31183;BME280;17813;0.000;0.000;2023-07-08T03:33:19;99753.59;;;13.05;78.41
31183;BME280;17813;0.000;0.000;2023-07-08T03:35:46;99757.31;;;13.03;78.95
31183;BME280;17813;0.000;0.000;2023-07-08T03:38:14;99757.59;;;12.98;79.11
31183;BME280;17813;0.000;0.000;2023-07-08T03:40:44;99756.00;;;12.96;78.97
31183;BME280;17813;0.000;0.000;2023-07-08T03:43:11;99755.09;;;13.09;78.39
31183;BME280;17813;0.000;0.000;2023-07-08T03:45:38;99754.19;;;13.23;77.53
31183;BME280;17813;0.000;0.000;2023-07-08T03:48:05;99757.19;;;13.31;77.22
31183;BME280;17813;0.000;0.000;2023-07-08T03:50:31;99750.47;;;13.38;76.83
31183;BME280;17813;0.000;0.000;2023-07-08T03:52:58;99752.72;;;13.44;77.21
31183;BME280;17813;0.000;0.000;2023-07-08T03:55:26;99761.03;;;13.40;77.72
31183;BME280;17813;0.000;0.000;2023-07-08T03:57:53;99757.84;;;13.47;77.88
31183;BME280;17813;0.000;0.000;2023-07-08T04:00:20;99755.78;;;13.89;76.65
31183;BME280;17813;0.000;0.000;2023-07-08T04:02:47;99756.69;;;14.13;75.65
31183;BME280;17813;0.000;0.000;2023-07-08T04:05:20;99758.31;;;14.03;75.54
31183;BME280;17813;0.000;0.000;2023-07-08T04:07:48;99764.94;;;14.10;75.63
31183;BME280;17813;0.000;0.000;2023-07-08T04:10:16;99746.81;;;14.39;74.57
31183;BME280;17813;0.000;0.000;2023-07-08T04:12:45;99742.59;;;14.85;73.59
31183;BME280;17813;0.000;0.000;2023-07-08T04:15:13;99744.22;;;14.98;72.88
31183;BME280;17813;0.000;0.000;2023-07-08T04:17:48;99760.25;;;14.74;72.57
31183;BME280;17813;0.000;0.000;2023-07-08T04:20:17;99746.72;;;14.89;72.91
31183;BME280;17813;0.000;0.000;2023-07-08T04:22:45;99751.25;;;15.34;72.44
31183;BME280;17813;0.000;0.000;2023-07-08T04:25:13;99751.34;;;16.01;70.91
31183;BME280;17813;0.000;0.000;2023-07-08T04:27:41;99744.13;;;16.47;68.81
31183;BME280;17813;0.000;0.000;2023-07-08T04:30:15;99752.50;;;17.17;66.85
31183;BME280;17813;0.000;0.000;2023-07-08T04:32:44;99751.66;;;17.79;65.28
31183;BME280;17813;0.000;0.000;2023-07-08T04:35:11;99750.63;;;18.41;63.55
31183;BME280;17813;0.000;0.000;2023-07-08T04:37:47;99754.28;;;18.90;61.12
31183;BME280;17813;0.000;0.000;2023-07-08T04:40:20;99756.63;;;19.61;60.16
31183;BME280;17813;0.000;0.000;2023-07-08T04:42:50;99752.34;;;20.14;59.11
31183;BME280;17813;0.000;0.000;2023-07-08T04:45:18;99753.22;;;20.42;57.26
31183;BME280;17813;0.000;0.000;2023-07-08T04:47:46;99761.47;;;21.04;56.50
31183;BME280;17813;0.000;0.000;2023-07-08T04:50:19;99762.63;;;21.37;54.41
31183;BME280;17813;0.000;0.000;2023-07-08T04:52:49;99757.28;;;21.71;52.92
31183;BME280;17813;0.000;0.000;2023-07-08T04:55:19;99759.13;;;21.96;52.13
31183;BME280;17813;0.000;0.000;2023-07-08T04:57:46;99746.66;;;22.29;51.72
31183;BME280;17813;0.000;0.000;2023-07-08T05:00:16;99752.66;;;22.65;50.15
31183;BME280;17813;0.000;0.000;2023-07-08T05:02:43;99748.53;;;23.12;49.38
31183;BME280;17813;0.000;0.000;2023-07-08T05:05:13;99757.69;;;23.27;48.39
31183;BME280;17813;0.000;0.000;2023-07-08T05:07:41;99755.19;;;23.58;47.30
31183;BME280;17813;0.000;0.000;2023-07-08T05:10:08;99753.25;;;23.91;46.55
31183;BME280;17813;0.000;0.000;2023-07-08T05:12:35;99756.47;;;24.42;45.72
31183;BME280;17813;0.000;0.000;2023-07-08T05:15:02;99743.84;;;24.88;44.93
31183;BME280;17813;0.000;0.000;2023-07-08T05:17:31;99756.88;;;24.61;44.44
31183;BME280;17813;0.000;0.000;2023-07-08T05:20:00;99754.84;;;24.32;44.17
31183;BME280;17813;0.000;0.000;2023-07-08T05:22:28;99759.00;;;24.74;43.80
31183;BME280;17813;0.000;0.000;2023-07-08T05:24:55;99753.59;;;25.43;43.66
31183;BME280;17813;0.000;0.000;2023-07-08T05:27:23;99754.84;;;25.55;42.00
31183;BME280;17813;0.000;0.000;2023-07-08T05:29:51;99755.69;;;25.93;41.68
31183;BME280;17813;0.000;0.000;2023-07-08T05:32:18;99750.16;;;25.86;41.58
31183;BME280;17813;0.000;0.000;2023-07-08T05:34:46;99739.09;;;26.62;40.79
31183;BME280;17813;0.000;0.000;2023-07-08T05:37:14;99735.50;;;27.40;39.21
31183;BME280;17813;0.000;0.000;2023-07-08T05:39:40;99734.34;;;27.28;38.85
31183;BME280;17813;0.000;0.000;2023-07-08T05:42:08;99734.28;;;27.00;38.17
31183;BME280;17813;0.000;0.000;2023-07-08T05:44:35;99737.06;;;27.06;38.46
31183;BME280;17813;0.000;0.000;2023-07-08T05:47:02;99732.69;;;27.54;38.29
31183;BME280;17813;0.000;0.000;2023-07-08T05:49:29;99732.88;;;28.15;37.69
31183;BME280;17813;0.000;0.000;2023-07-08T05:51:57;99733.44;;;28.39;37.29
31183;BME280;17813;0.000;0.000;2023-07-08T05:54:24;99730.75;;;29.00;36.76
31183;BME280;17813;0.000;0.000;2023-07-08T05:56:50;99730.97;;;29.18;35.53
31183;BME280;17813;0.000;0.000;2023-07-08T05:59:20;99740.81;;;28.99;35.38
31183;BME280;17813;0.000;0.000;2023-07-08T06:01:47;99733.75;;;29.51;35.94
31183;BME280;17813;0.000;0.000;2023-07-08T06:04:14;99733.06;;;30.02;34.99
31183;BME280;17813;0.000;0.000;2023-07-08T06:06:41;99737.41;;;30.29;33.97
31183;BME280;17813;0.000;0.000;2023-07-08T06:09:07;99730.41;;;30.85;33.53
31183;BME280;17813;0.000;0.000;2023-07-08T06:11:35;99735.69;;;30.35;33.96
31183;BME280;17813;0.000;0.000;2023-07-08T06:14:02;99733.94;;;30.54;33.61
31183;BME280;17813;0.000;0.000;2023-07-08T06:16:29;99733.31;;;30.58;33.74
31183;BME280;17813;0.000;0.000;2023-07-08T06:18:57;99730.75;;;30.63;33.21
31183;BME280;17813;0.000;0.000;2023-07-08T06:21:24;99724.34;;;31.14;32.99
31183;BME280;17813;0.000;0.000;2023-07-08T06:23:54;99733.16;;;31.23;32.28
31183;BME280;17813;0.000;0.000;2023-07-08T06:26:22;99730.88;;;31.45;32.26
31183;BME280;17813;0.000;0.000;2023-07-08T06:28:50;99726.19;;;31.77;31.86
31183;BME280;17813;0.000;0.000;2023-07-08T06:31:18;99726.25;;;32.32;31.52
31183;BME280;17813;0.000;0.000;2023-07-08T06:33:45;99727.72;;;32.82;29.93
31183;BME280;17813;0.000;0.000;2023-07-08T06:36:12;99727.31;;;32.31;30.08
31183;BME280;17813;0.000;0.000;2023-07-08T06:38:39;99728.22;;;32.91;30.64
31183;BME280;17813;0.000;0.000;2023-07-08T06:41:05;99730.38;;;33.31;29.57
31183;BME280;17813;0.000;0.000;2023-07-08T06:43:33;99727.34;;;34.09;28.76
31183;BME280;17813;0.000;0.000;2023-07-08T06:45:59;99729.31;;;33.78;28.37
31183;BME280;17813;0.000;0.000;2023-07-08T06:48:26;99734.50;;;34.10;28.26
31183;BME280;17813;0.000;0.000;2023-07-08T06:50:54;99716.63;;;34.76;27.76
31183;BME280;17813;0.000;0.000;2023-07-08T06:53:20;99714.94;;;34.75;27.25
31183;BME280;17813;0.000;0.000;2023-07-08T06:55:48;99719.47;;;35.26;26.61
31183;BME280;17813;0.000;0.000;2023-07-08T06:58:16;99713.47;;;36.18;26.42
31183;BME280;17813;0.000;0.000;2023-07-08T07:00:44;99717.97;;;36.90;25.17
31183;BME280;17813;0.000;0.000;2023-07-08T07:03:12;99711.06;;;37.19;24.85
31183;BME280;17813;0.000;0.000;2023-07-08T07:05:39;99714.09;;;37.82;24.04
31183;BME280;17813;0.000;0.000;2023-07-08T07:08:06;99719.94;;;38.38;23.86
31183;BME280;17813;0.000;0.000;2023-07-08T07:10:35;99717.22;;;38.58;23.80
31183;BME280;17813;0.000;0.000;2023-07-08T07:13:02;99708.16;;;38.73;23.31
31183;BME280;17813;0.000;0.000;2023-07-08T07:15:30;99712.72;;;39.09;23.79
31183;BME280;17813;0.000;0.000;2023-07-08T07:17:59;99711.88;;;39.60;22.91
31183;BME280;17813;0.000;0.000;2023-07-08T07:20:27;99715.78;;;39.59;21.96
31183;BME280;17813;0.000;0.000;2023-07-08T07:22:57;99715.06;;;40.28;20.76
31183;BME280;17813;0.000;0.000;2023-07-08T07:25:26;99709.31;;;40.68;19.97
31183;BME280;17813;0.000;0.000;2023-07-08T07:27:53;99707.88;;;40.76;21.28
31183;BME280;17813;0.000;0.000;2023-07-08T07:30:20;99717.09;;;41.16;20.72
31183;BME280;17813;0.000;0.000;2023-07-08T07:32:47;99712.03;;;40.84;20.47
31183;BME280;17813;0.000;0.000;2023-07-08T07:35:14;99711.78;;;41.24;19.46
31183;BME280;17813;0.000;0.000;2023-07-08T07:37:49;99708.19;;;41.13;20.28
31183;BME280;17813;0.000;0.000;2023-07-08T07:40:15;99708.50;;;41.12;20.23
31183;BME280;17813;0.000;0.000;2023-07-08T07:42:45;99701.97;;;40.93;19.26
31183;BME280;17813;0.000;0.000;2023-07-08T07:45:14;99704.88;;;41.11;19.96
31183;BME280;17813;0.000;0.000;2023-07-08T07:47:42;99695.22;;;41.04;19.38
31183;BME280;17813;0.000;0.000;2023-07-08T07:50:10;99700.59;;;40.36;19.85
31183;BME280;17813;0.000;0.000;2023-07-08T07:52:38;99699.34;;;39.98;20.08
31183;BME280;17813;0.000;0.000;2023-07-08T07:55:28;99706.75;;;38.65;20.81
31183;BME280;17813;0.000;0.000;2023-07-08T07:57:58;99702.19;;;38.34;21.29
31183;BME280;17813;0.000;0.000;2023-07-08T08:00:25;99700.09;;;38.61;20.30
31183;BME280;17813;0.000;0.000;2023-07-08T08:02:52;99693.72;;;38.66;21.39
31183;BME280;17813;0.000;0.000;2023-07-08T08:05:18;99697.88;;;38.63;21.54
31183;BME280;17813;0.000;0.000;2023-07-08T08:07:51;99694.81;;;38.59;20.89
31183;BME280;17813;0.000;0.000;2023-07-08T08:10:21;99688.84;;;39.23;24.05
31183;BME280;17813;0.000;0.000;2023-07-08T08:12:48;99694.09;;;39.81;23.28
31183;BME280;17813;0.000;0.000;2023-07-08T08:15:19;99692.38;;;40.00;23.28
31183;BME280;17813;0.000;0.000;2023-07-08T08:17:46;99692.94;;;39.87;22.25
31183;BME280;17813;0.000;0.000;2023-07-08T08:20:16;99691.06;;;39.27;22.97
31183;BME280;17813;0.000;0.000;2023-07-08T08:22:43;99702.97;;;39.02;23.24
31183;BME280;17813;0.000;0.000;2023-07-08T08:25:11;99697.94;;;38.88;22.82
31183;BME280;17813;0.000;0.000;2023-07-08T08:27:38;99705.81;;;38.44;24.55
31183;BME280;17813;0.000;0.000;2023-07-08T08:30:08;99706.66;;;37.92;25.53
31183;BME280;17813;0.000;0.000;2023-07-08T08:32:37;99714.63;;;37.79;25.98
31183;BME280;17813;0.000;0.000;2023-07-08T08:35:07;99709.25;;;38.09;26.73
31183;BME280;17813;0.000;0.000;2023-07-08T08:37:35;99704.78;;;38.60;25.90
31183;BME280;17813;0.000;0.000;2023-07-08T08:40:02;99709.34;;;39.02;23.98
31183;BME280;17813;0.000;0.000;2023-07-08T08:42:40;99701.34;;;39.51;24.84
31183;BME280;17813;0.000;0.000;2023-07-08T08:45:13;99703.75;;;40.09;24.06
31183;BME280;17813;0.000;0.000;2023-07-08T08:47:44;99704.34;;;40.65;22.44
31183;BME280;17813;0.000;0.000;2023-07-08T08:53:02;99717.13;;;42.31;20.92
31183;BME280;17813;0.000;0.000;2023-07-08T08:55:31;99717.88;;;43.17;20.12
31183;BME280;17813;0.000;0.000;2023-07-08T08:58:09;99705.78;;;43.41;17.53
31183;BME280;17813;0.000;0.000;2023-07-08T09:01:03;99714.97;;;43.09;16.29
31183;BME280;17813;0.000;0.000;2023-07-08T09:03:43;99707.16;;;43.89;18.57
31183;BME280;17813;0.000;0.000;2023-07-08T09:08:48;99703.69;;;45.25;17.50
31183;BME280;17813;0.000;0.000;2023-07-08T09:11:44;99690.50;;;45.25;16.74
31183;BME280;17813;0.000;0.000;2023-07-08T09:14:37;99693.63;;;44.51;16.52
31183;BME280;17813;0.000;0.000;2023-07-08T09:17:29;99694.75;;;44.64;16.85
31183;BME280;17813;0.000;0.000;2023-07-08T09:20:12;99694.16;;;44.90;17.34
31183;BME280;17813;0.000;0.000;2023-07-08T09:22:57;99691.34;;;44.53;14.70
31183;BME280;17813;0.000;0.000;2023-07-08T09:25:34;99695.78;;;43.53;16.31
31183;BME280;17813;0.000;0.000;2023-07-08T09:28:03;99689.25;;;44.59;17.55
31183;BME280;17813;0.000;0.000;2023-07-08T09:30:30;99686.88;;;45.25;17.67
31183;BME280;17813;0.000;0.000;2023-07-08T09:32:57;99693.13;;;45.75;17.02
31183;BME280;17813;0.000;0.000;2023-07-08T09:35:43;99684.78;;;45.92;16.83
31183;BME280;17813;0.000;0.000;2023-07-08T09:38:18;99684.13;;;45.95;16.91
31183;BME280;17813;0.000;0.000;2023-07-08T09:40:50;99679.22;;;46.49;16.31
31183;BME280;17813;0.000;0.000;2023-07-08T09:43:43;99681.47;;;46.30;15.82
31183;BME280;17813;0.000;0.000;2023-07-08T09:46:12;99679.16;;;46.32;17.23
31183;BME280;17813;0.000;0.000;2023-07-08T09:48:40;99676.25;;;46.54;16.77
31183;BME280;17813;0.000;0.000;2023-07-08T09:51:20;99684.56;;;46.20;14.32
31183;BME280;17813;0.000;0.000;2023-07-08T09:53:47;99684.16;;;46.52;13.95
31183;BME280;17813;0.000;0.000;2023-07-08T09:56:18;99684.25;;;46.21;15.41
31183;BME280;17813;0.000;0.000;2023-07-08T09:58:45;99677.81;;;45.50;13.81
31183;BME280;17813;0.000;0.000;2023-07-08T10:01:23;99681.16;;;44.71;13.74
31183;BME280;17813;0.000;0.000;2023-07-08T10:03:58;99686.53;;;44.68;16.81
31183;BME280;17813;0.000;0.000;2023-07-08T10:06:28;99682.44;;;44.51;14.85
31183;BME280;17813;0.000;0.000;2023-07-08T10:09:03;99677.31;;;44.67;14.96
31183;BME280;17813;0.000;0.000;2023-07-08T10:11:44;99670.72;;;45.22;14.83
31183;BME280;17813;0.000;0.000;2023-07-08T10:14:37;99680.03;;;44.59;13.81
31183;BME280;17813;0.000;0.000;2023-07-08T10:17:05;99671.00;;;42.63;12.83
31183;BME280;17813;0.000;0.000;2023-07-08T10:19:34;99674.84;;;42.48;14.26
31183;BME280;17813;0.000;0.000;2023-07-08T10:28:10;99651.47;;;43.93;14.43
31183;BME280;17813;0.000;0.000;2023-07-08T10:46:00;99664.41;;;40.51;14.75
31183;BME280;17813;0.000;0.000;2023-07-08T10:48:44;99657.50;;;39.59;15.61
31183;BME280;17813;0.000;0.000;2023-07-08T10:54:37;99651.81;;;38.57;17.02
31183;BME280;17813;0.000;0.000;2023-07-08T11:08:01;99664.72;;;38.16;16.57
31183;BME280;17813;0.000;0.000;2023-07-08T11:10:48;99657.31;;;37.74;17.36
31183;BME280;17813;0.000;0.000;2023-07-08T11:13:20;99656.84;;;37.92;16.80
31183;BME280;17813;0.000;0.000;2023-07-08T11:18:47;99653.81;;;37.94;20.89
31183;BME280;17813;0.000;0.000;2023-07-08T11:26:50;99641.09;;;39.67;17.29
31183;BME280;17813;0.000;0.000;2023-07-08T11:29:41;99640.75;;;39.94;18.91
31183;BME280;17813;0.000;0.000;2023-07-08T11:32:14;99636.94;;;39.70;15.70
31183;BME280;17813;0.000;0.000;2023-07-08T11:34:48;99638.09;;;39.48;17.75
31183;BME280;17813;0.000;0.000;2023-07-08T11:37:17;99641.06;;;39.77;17.46
31183;BME280;17813;0.000;0.000;2023-07-08T11:40:21;99644.75;;;39.22;15.96
31183;BME280;17813;0.000;0.000;2023-07-08T11:43:03;99639.97;;;38.92;18.41
31183;BME280;17813;0.000;0.000;2023-07-08T11:45:34;99635.06;;;39.09;17.53
31183;BME280;17813;0.000;0.000;2023-07-08T11:48:13;99639.13;;;38.66;16.67
31183;BME280;17813;0.000;0.000;2023-07-08T11:50:45;99635.31;;;38.10;16.48
31183;BME280;17813;0.000;0.000;2023-07-08T11:56:03;99637.72;;;37.44;16.62
31183;BME280;17813;0.000;0.000;2023-07-08T11:58:57;99631.81;;;36.98;17.62
31183;BME280;17813;0.000;0.000;2023-07-08T12:04:30;99637.41;;;36.49;18.97
31183;BME280;17813;0.000;0.000;2023-07-08T12:07:15;99637.50;;;36.37;18.88
31183;BME280;17813;0.000;0.000;2023-07-08T12:10:00;99632.00;;;36.37;19.40
31183;BME280;17813;0.000;0.000;2023-07-08T12:12:34;99635.38;;;36.23;18.16
31183;BME280;17813;0.000;0.000;2023-07-08T12:15:33;99633.47;;;36.23;18.13
31183;BME280;17813;0.000;0.000;2023-07-08T12:18:22;99628.00;;;36.06;18.20
31183;BME280;17813;0.000;0.000;2023-07-08T12:21:01;99623.06;;;35.87;19.23
31183;BME280;17813;0.000;0.000;2023-07-08T12:23:35;99625.59;;;35.71;18.83
31183;BME280;17813;0.000;0.000;2023-07-08T12:26:07;99625.00;;;35.86;19.33
31183;BME280;17813;0.000;0.000;2023-07-08T12:28:43;99621.16;;;36.09;19.24
31183;BME280;17813;0.000;0.000;2023-07-08T12:31:22;99615.44;;;36.16;19.81
31183;BME280;17813;0.000;0.000;2023-07-08T12:33:53;99617.19;;;36.44;19.98
31183;BME280;17813;0.000;0.000;2023-07-08T12:36:44;99611.44;;;36.50;20.49
31183;BME280;17813;0.000;0.000;2023-07-08T12:39:14;99604.03;;;36.56;20.82
31183;BME280;17813;0.000;0.000;2023-07-08T12:41:46;99606.31;;;36.64;21.45
31183;BME280;17813;0.000;0.000;2023-07-08T12:44:29;99602.22;;;36.66;19.03
31183;BME280;17813;0.000;0.000;2023-07-08T12:47:02;99598.34;;;36.67;19.51
31183;BME280;17813;0.000;0.000;2023-07-08T12:49:30;99595.91;;;36.71;19.74
31183;BME280;17813;0.000;0.000;2023-07-08T12:51:57;99589.28;;;36.72;20.53
31183;BME280;17813;0.000;0.000;2023-07-08T12:54:24;99599.31;;;36.78;22.01
31183;BME280;17813;0.000;0.000;2023-07-08T12:57:00;99595.66;;;37.05;21.32
31183;BME280;17813;0.000;0.000;2023-07-08T12:59:30;99592.56;;;37.33;18.43
31183;BME280;17813;0.000;0.000;2023-07-08T13:01:57;99601.81;;;37.54;18.97
31183;BME280;17813;0.000;0.000;2023-07-08T13:04:27;99594.69;;;37.68;17.71
31183;BME280;17813;0.000;0.000;2023-07-08T13:06:57;99598.84;;;37.65;18.11
31183;BME280;17813;0.000;0.000;2023-07-08T13:09:36;99590.31;;;37.72;17.94
31183;BME280;17813;0.000;0.000;2023-07-08T13:12:14;99597.84;;;37.87;18.96
31183;BME280;17813;0.000;0.000;2023-07-08T13:15:15;99587.91;;;37.44;17.24
31183;BME280;17813;0.000;0.000;2023-07-08T13:17:46;99580.44;;;37.39;17.97
31183;BME280;17813;0.000;0.000;2023-07-08T13:20:16;99579.88;;;37.37;18.36
31183;BME280;17813;0.000;0.000;2023-07-08T13:22:51;99581.31;;;37.50;18.39
31183;BME280;17813;0.000;0.000;2023-07-08T13:25:19;99581.91;;;37.57;17.84
31183;BME280;17813;0.000;0.000;2023-07-08T13:28:17;99582.34;;;37.01;17.17
31183;BME280;17813;0.000;0.000;2023-07-08T13:30:53;99584.69;;;36.56;16.82
31183;BME280;17813;0.000;0.000;2023-07-08T13:33:21;99577.72;;;36.48;17.23
31183;BME280;17813;0.000;0.000;2023-07-08T13:35:50;99580.06;;;36.61;17.88
31183;BME280;17813;0.000;0.000;2023-07-08T13:38:32;99575.31;;;36.57;17.32
31183;BME280;17813;0.000;0.000;2023-07-08T13:41:02;99565.59;;;36.49;18.55
31183;BME280;17813;0.000;0.000;2023-07-08T13:47:36;99568.72;;;35.87;19.63
31183;BME280;17813;0.000;0.000;2023-07-08T13:50:15;99573.44;;;35.70;18.85
31183;BME280;17813;0.000;0.000;2023-07-08T13:52:46;99570.31;;;35.83;19.38
31183;BME280;17813;0.000;0.000;2023-07-08T13:55:18;99569.06;;;35.74;19.74
31183;BME280;17813;0.000;0.000;2023-07-08T13:57:54;99572.47;;;35.59;19.65
31183;BME280;17813;0.000;0.000;2023-07-08T14:00:22;99568.84;;;35.37;19.62
31183;BME280;17813;0.000;0.000;2023-07-08T14:02:50;99561.78;;;35.07;19.58
31183;BME280;17813;0.000;0.000;2023-07-08T14:05:17;99568.69;;;35.27;22.48
31183;BME280;17813;0.000;0.000;2023-07-08T14:07:47;99573.09;;;35.44;21.81
31183;BME280;17813;0.000;0.000;2023-07-08T14:10:16;99567.47;;;35.56;20.73
31183;BME280;17813;0.000;0.000;2023-07-08T14:12:50;99567.84;;;35.26;20.01
31183;BME280;17813;0.000;0.000;2023-07-08T14:15:18;99560.66;;;35.25;20.94
31183;BME280;17813;0.000;0.000;2023-07-08T14:17:44;99558.25;;;35.12;21.73
31183;BME280;17813;0.000;0.000;2023-07-08T14:20:16;99564.88;;;35.11;21.80
31183;BME280;17813;0.000;0.000;2023-07-08T14:22:44;99565.03;;;35.04;21.50
31183;BME280;17813;0.000;0.000;2023-07-08T14:25:13;99563.69;;;35.24;20.96
31183;BME280;17813;0.000;0.000;2023-07-08T14:27:41;99557.53;;;35.00;21.43
31183;BME280;17813;0.000;0.000;2023-07-08T14:30:10;99561.38;;;34.99;20.96
31183;BME280;17813;0.000;0.000;2023-07-08T14:32:37;99553.69;;;35.01;21.28
31183;BME280;17813;0.000;0.000;2023-07-08T14:35:30;99553.59;;;34.96;20.83